< Typhoon 196616 1966 Season Typhoon 196618 >
Typhoon 196617 (BETTY)
General InformationTrack Information on Google Maps || Disaster Info.ResourceGoogle EarthGE AnimationAtom FeedGeoJSON
Detalied Best Track (Time Zone = UTC)
Year Month Day Hour Lat. Long. Pressure (hPa) Wind (kt) Class Image Chart
1966 8 21 12 18.0 169.0 1008 0 2 -- Chart
1966 8 21 18 18.3 167.0 1006 0 2 -- Chart
1966 8 22 00 19.0 164.8 1006 0 2 -- Chart
1966 8 22 06 19.8 162.5 1004 0 2 -- Chart
1966 8 22 12 20.3 159.6 1006 0 2 -- Chart
1966 8 22 18 21.0 157.0 1006 0 2 -- Chart
1966 8 23 00 21.5 155.0 1008 0 2 -- Chart
1966 8 23 06 21.9 153.5 1004 0 2 -- Chart
1966 8 23 12 21.9 152.3 1006 0 2 -- Chart
1966 8 23 18 21.9 151.1 1004 0 2 -- Chart
1966 8 24 00 22.1 149.8 1006 0 2 -- Chart
1966 8 24 06 23.0 148.5 1006 0 2 -- Chart
1966 8 24 12 24.0 147.1 1006 0 2 -- Chart
1966 8 24 18 25.0 146.0 1006 0 2 -- Chart
1966 8 25 00 26.4 145.6 1006 0 2 -- Chart
1966 8 25 06 27.0 143.5 1004 0 2 -- Chart
1966 8 25 12 28.0 142.5 1004 0 2 -- Chart
1966 8 25 18 29.0 141.0 1008 0 2 -- Chart
1966 8 26 00 29.0 139.0 1008 0 2 -- Chart
1966 8 26 06 28.8 137.6 1006 0 2 -- Chart
1966 8 26 12 28.0 136.4 1008 0 2 -- Chart
1966 8 26 18 28.0 135.0 1008 0 2 -- Chart
1966 8 27 00 28.0 134.0 1008 0 2 -- Chart
1966 8 27 06 28.0 133.0 1008 0 2 -- Chart
1966 8 27 12 28.5 131.8 1008 0 2 -- Chart
1966 8 27 18 28.8 130.6 1007 0 2 -- Chart
1966 8 28 00 29.1 129.5 1008 0 2 -- Chart
1966 8 28 06 29.0 128.0 1004 0 2 -- Chart
1966 8 28 12 29.5 127.4 1000 0 2 -- Chart
1966 8 28 18 30.4 127.0 996 0 2 -- Chart
1966 8 29 00 31.1 126.7 994 0 9 -- Chart
1966 8 29 06 31.7 126.5 990 0 9 -- Chart
1966 8 29 12 32.3 126.2 988 0 9 -- Chart
1966 8 29 18 33.0 126.2 986 0 9 -- Chart
1966 8 30 00 33.7 126.2 988 0 9 -- Chart
1966 8 30 06 34.6 126.7 992 0 9 -- Chart
1966 8 30 12 35.2 127.2 994 0 9 -- Chart
1966 8 30 18 35.6 127.8 998 0 9 -- Chart
1966 8 31 00 36.4 129.0 1000 0 2 -- Chart
1966 8 31 06 37.0 130.0 1002 0 2 -- Chart
1966 8 31 12 38.0 131.5 1002 0 2 -- Chart
1966 8 31 18 39.0 132.8 1004 0 2 -- Chart
1966 9 1 00 39.5 135.5 1007 0 6 -- Chart
1966 9 1 06 40.4 138.2 1004 0 6 -- Chart
1966 9 1 12 41.1 141.0 1000 0 6 -- Chart
1966 9 1 18 41.5 144.0 1002 0 6 -- Chart
1966 9 2 00 42.9 146.0 1007 0 6 -- Chart
1966 9 2 06 44.0 149.0 1006 0 6 -- Chart
1966 9 2 12 45.0 151.1 1004 0 6 -- Chart
1966 9 2 18 47.0 154.0 1004 0 6 -- Chart
1966 9 3 00 49.0 156.0 1004 0 6 -- Chart
1966 9 3 06 50.2 158.8 1006 0 6 -- Chart
1966 9 3 12 52.6 160.0 1007 0 6 -- Chart
1966 9 3 18 54.3 162.8 1006 0 6 -- Chart
1966 9 4 00 56.7 163.0 1002 0 6 -- Chart
1966 9 4 06 58.4 167.0 1004 0 6 -- Chart
1966 9 4 12 59.4 171.1 1006 0 6 -- Chart
1966 9 4 18 60.0 175.3 1006 0 6 -- Chart
Japan Meteorological Agency Best Track Data | Correction Date : 1989-06-01
< Typhoon 196616 1966 Season Typhoon 196618 >

Help